sensor_id;sensor_type;location;lat;lon;timestamp;pressure;altitude;pressure_sealevel;temperature;humidity
73106;BME280;61559;50.476;15.588;2023-05-08T00:00:20;98422.83;;;5.29;70.49
73106;BME280;61559;50.476;15.588;2023-05-08T00:03:11;98423.45;;;5.28;70.51
73106;BME280;61559;50.476;15.588;2023-05-08T00:05:43;98418.52;;;5.23;70.77
73106;BME280;61559;50.476;15.588;2023-05-08T00:08:14;98419.58;;;5.22;70.72
73106;BME280;61559;50.476;15.588;2023-05-08T00:10:44;98416.96;;;5.21;70.74
73106;BME280;61559;50.476;15.588;2023-05-08T00:13:15;98413.96;;;5.16;71.21
73106;BME280;61559;50.476;15.588;2023-05-08T00:15:44;98415.18;;;5.15;71.07
73106;BME280;61559;50.476;15.588;2023-05-08T00:18:16;98412.21;;;5.13;71.15
73106;BME280;61559;50.476;15.588;2023-05-08T00:20:47;98410.20;;;5.09;71.16
73106;BME280;61559;50.476;15.588;2023-05-08T00:23:17;98409.16;;;5.06;71.37
73106;BME280;61559;50.476;15.588;2023-05-08T00:25:47;98406.42;;;5.02;71.46
73106;BME280;61559;50.476;15.588;2023-05-08T00:28:17;98410.09;;;5.00;71.61
73106;BME280;61559;50.476;15.588;2023-05-08T00:30:48;98409.65;;;4.94;71.76
73106;BME280;61559;50.476;15.588;2023-05-08T00:33:18;98407.46;;;4.86;71.90
73106;BME280;61559;50.476;15.588;2023-05-08T00:35:49;98405.73;;;4.77;72.06
73106;BME280;61559;50.476;15.588;2023-05-08T00:38:20;98402.42;;;4.71;72.26
73106;BME280;61559;50.476;15.588;2023-05-08T00:40:51;98404.64;;;4.68;72.15
73106;BME280;61559;50.476;15.588;2023-05-08T00:43:22;98401.91;;;4.65;72.53
73106;BME280;61559;50.476;15.588;2023-05-08T00:45:58;98402.16;;;4.64;72.52
73106;BME280;61559;50.476;15.588;2023-05-08T00:48:31;98405.77;;;4.61;72.78
73106;BME280;61559;50.476;15.588;2023-05-08T00:51:05;98407.02;;;4.58;72.63
73106;BME280;61559;50.476;15.588;2023-05-08T00:53:40;98403.29;;;4.57;72.81
73106;BME280;61559;50.476;15.588;2023-05-08T00:56:13;98406.23;;;4.56;72.60
73106;BME280;61559;50.476;15.588;2023-05-08T00:58:45;98409.55;;;4.55;72.53
73106;BME280;61559;50.476;15.588;2023-05-08T01:01:17;98408.77;;;4.53;72.68
73106;BME280;61559;50.476;15.588;2023-05-08T01:03:48;98409.77;;;4.49;72.71
73106;BME280;61559;50.476;15.588;2023-05-08T01:06:19;98413.77;;;4.41;72.87
73106;BME280;61559;50.476;15.588;2023-05-08T01:08:50;98415.04;;;4.32;72.86
73106;BME280;61559;50.476;15.588;2023-05-08T01:11:26;98413.21;;;4.24;73.11
73106;BME280;61559;50.476;15.588;2023-05-08T01:14:09;98412.34;;;4.19;73.14
73106;BME280;61559;50.476;15.588;2023-05-08T01:17:08;98417.39;;;4.13;73.58
73106;BME280;61559;50.476;15.588;2023-05-08T01:20:03;98419.67;;;4.12;73.28
73106;BME280;61559;50.476;15.588;2023-05-08T01:22:57;98416.70;;;4.10;73.37
73106;BME280;61559;50.476;15.588;2023-05-08T01:25:58;98419.33;;;4.13;73.16
73106;BME280;61559;50.476;15.588;2023-05-08T01:31:59;98424.18;;;4.14;73.41
73106;BME280;61559;50.476;15.588;2023-05-08T01:34:39;98425.25;;;4.13;73.16
73106;BME280;61559;50.476;15.588;2023-05-08T01:37:16;98426.11;;;4.12;73.66
73106;BME280;61559;50.476;15.588;2023-05-08T01:39:56;98430.05;;;4.09;73.96
73106;BME280;61559;50.476;15.588;2023-05-08T01:42:38;98432.77;;;4.07;74.13
73106;BME280;61559;50.476;15.588;2023-05-08T01:45:15;98431.75;;;4.06;74.28
73106;BME280;61559;50.476;15.588;2023-05-08T01:47:58;98432.58;;;4.03;74.59
73106;BME280;61559;50.476;15.588;2023-05-08T01:50:34;98426.67;;;3.97;74.49
73106;BME280;61559;50.476;15.588;2023-05-08T01:53:09;98425.26;;;3.93;74.50
73106;BME280;61559;50.476;15.588;2023-05-08T01:55:44;98430.75;;;3.92;74.67
73106;BME280;61559;50.476;15.588;2023-05-08T01:58:17;98427.77;;;3.90;74.72
73106;BME280;61559;50.476;15.588;2023-05-08T02:00:50;98427.00;;;3.88;74.51
73106;BME280;61559;50.476;15.588;2023-05-08T02:03:23;98432.23;;;3.87;74.43
73106;BME280;61559;50.476;15.588;2023-05-08T02:05:55;98432.98;;;3.86;74.46
73106;BME280;61559;50.476;15.588;2023-05-08T02:08:29;98428.23;;;3.85;74.53
73106;BME280;61559;50.476;15.588;2023-05-08T02:11:02;98426.52;;;3.81;74.66
73106;BME280;61559;50.476;15.588;2023-05-08T02:13:35;98425.98;;;3.79;74.68
73106;BME280;61559;50.476;15.588;2023-05-08T02:16:08;98427.74;;;3.77;74.70
73106;BME280;61559;50.476;15.588;2023-05-08T02:18:47;98428.02;;;3.74;74.77
73106;BME280;61559;50.476;15.588;2023-05-08T02:21:20;98434.02;;;3.74;74.66
73106;BME280;61559;50.476;15.588;2023-05-08T02:23:52;98433.36;;;3.75;74.90
73106;BME280;61559;50.476;15.588;2023-05-08T02:26:24;98428.12;;;3.75;74.94
73106;BME280;61559;50.476;15.588;2023-05-08T02:28:57;98430.67;;;3.76;74.86
73106;BME280;61559;50.476;15.588;2023-05-08T02:31:30;98434.30;;;3.75;75.12
73106;BME280;61559;50.476;15.588;2023-05-08T02:34:02;98429.84;;;3.73;74.85
73106;BME280;61559;50.476;15.588;2023-05-08T02:36:34;98433.63;;;3.74;74.97
73106;BME280;61559;50.476;15.588;2023-05-08T02:39:09;98439.21;;;3.73;75.07
73106;BME280;61559;50.476;15.588;2023-05-08T02:41:42;98434.39;;;3.75;75.06
73106;BME280;61559;50.476;15.588;2023-05-08T02:44:13;98432.96;;;3.74;74.94
73106;BME280;61559;50.476;15.588;2023-05-08T02:46:50;98433.51;;;3.73;75.07
73106;BME280;61559;50.476;15.588;2023-05-08T02:49:29;98431.09;;;3.71;75.18
73106;BME280;61559;50.476;15.588;2023-05-08T02:52:05;98432.14;;;3.69;75.03
73106;BME280;61559;50.476;15.588;2023-05-08T02:54:40;98428.91;;;3.68;75.27
73106;BME280;61559;50.476;15.588;2023-05-08T02:57:20;98428.76;;;3.67;75.18
73106;BME280;61559;50.476;15.588;2023-05-08T02:59:58;98437.49;;;3.66;75.08
73106;BME280;61559;50.476;15.588;2023-05-08T03:02:36;98436.28;;;3.61;74.91
73106;BME280;61559;50.476;15.588;2023-05-08T03:05:14;98447.56;;;3.63;74.87
73106;BME280;61559;50.476;15.588;2023-05-08T03:07:48;98448.14;;;3.60;75.03
73106;BME280;61559;50.476;15.588;2023-05-08T03:10:25;98447.54;;;3.57;75.02
73106;BME280;61559;50.476;15.588;2023-05-08T03:12:59;98446.45;;;3.51;75.44
73106;BME280;61559;50.476;15.588;2023-05-08T03:15:36;98449.73;;;3.43;75.80
73106;BME280;61559;50.476;15.588;2023-05-08T03:18:15;98448.05;;;3.38;75.99
73106;BME280;61559;50.476;15.588;2023-05-08T03:20:50;98449.27;;;3.34;76.33
73106;BME280;61559;50.476;15.588;2023-05-08T03:23:23;98450.73;;;3.32;76.17
73106;BME280;61559;50.476;15.588;2023-05-08T03:25:58;98449.58;;;3.31;76.40
73106;BME280;61559;50.476;15.588;2023-05-08T03:28:32;98450.86;;;3.31;76.53
73106;BME280;61559;50.476;15.588;2023-05-08T03:31:05;98451.74;;;3.32;76.42
73106;BME280;61559;50.476;15.588;2023-05-08T03:33:39;98446.23;;;3.32;76.56
73106;BME280;61559;50.476;15.588;2023-05-08T03:36:11;98449.14;;;3.32;76.63
73106;BME280;61559;50.476;15.588;2023-05-08T03:38:43;98452.44;;;3.31;76.45
73106;BME280;61559;50.476;15.588;2023-05-08T03:41:14;98447.77;;;3.29;76.65
73106;BME280;61559;50.476;15.588;2023-05-08T03:43:46;98446.30;;;3.24;76.98
73106;BME280;61559;50.476;15.588;2023-05-08T03:46:17;98450.27;;;3.24;77.11
73106;BME280;61559;50.476;15.588;2023-05-08T03:48:49;98453.15;;;3.23;77.21
73106;BME280;61559;50.476;15.588;2023-05-08T03:51:22;98447.99;;;3.22;77.28
73106;BME280;61559;50.476;15.588;2023-05-08T03:53:53;98451.04;;;3.21;77.21
73106;BME280;61559;50.476;15.588;2023-05-08T03:56:24;98445.05;;;3.18;77.27
73106;BME280;61559;50.476;15.588;2023-05-08T03:59:02;98444.86;;;3.20;77.39
73106;BME280;61559;50.476;15.588;2023-05-08T04:01:43;98447.16;;;3.21;77.73
73106;BME280;61559;50.476;15.588;2023-05-08T04:04:22;98446.42;;;3.22;77.62
73106;BME280;61559;50.476;15.588;2023-05-08T04:07:05;98442.23;;;3.25;77.70
73106;BME280;61559;50.476;15.588;2023-05-08T04:09:41;98447.00;;;3.27;77.75
73106;BME280;61559;50.476;15.588;2023-05-08T04:12:19;98450.85;;;3.30;77.74
73106;BME280;61559;50.476;15.588;2023-05-08T04:14:54;98454.36;;;3.34;77.60
73106;BME280;61559;50.476;15.588;2023-05-08T04:17:35;98454.77;;;3.39;77.55
73106;BME280;61559;50.476;15.588;2023-05-08T04:20:12;98458.54;;;3.70;76.93
73106;BME280;61559;50.476;15.588;2023-05-08T04:22:45;98463.15;;;4.01;75.74
73106;BME280;61559;50.476;15.588;2023-05-08T04:25:19;98461.16;;;4.33;74.68
73106;BME280;61559;50.476;15.588;2023-05-08T04:27:51;98458.96;;;4.59;73.48
73106;BME280;61559;50.476;15.588;2023-05-08T04:30:25;98459.14;;;4.69;72.91
73106;BME280;61559;50.476;15.588;2023-05-08T04:32:57;98464.86;;;4.96;72.13
73106;BME280;61559;50.476;15.588;2023-05-08T04:35:29;98468.92;;;5.18;71.38
73106;BME280;61559;50.476;15.588;2023-05-08T04:38:01;98469.88;;;5.17;71.43
73106;BME280;61559;50.476;15.588;2023-05-08T04:40:32;98470.20;;;5.01;71.13
73106;BME280;61559;50.476;15.588;2023-05-08T04:43:03;98475.08;;;4.90;71.77
73106;BME280;61559;50.476;15.588;2023-05-08T04:45:34;98474.10;;;4.83;72.00
73106;BME280;61559;50.476;15.588;2023-05-08T04:48:06;98477.85;;;4.94;71.86
73106;BME280;61559;50.476;15.588;2023-05-08T04:50:38;98483.20;;;5.39;70.66
73106;BME280;61559;50.476;15.588;2023-05-08T04:53:09;98483.72;;;5.83;69.15
73106;BME280;61559;50.476;15.588;2023-05-08T04:55:40;98477.77;;;6.16;67.60
73106;BME280;61559;50.476;15.588;2023-05-08T04:58:12;98481.09;;;6.51;66.95
73106;BME280;61559;50.476;15.588;2023-05-08T05:00:43;98482.12;;;6.83;65.94
73106;BME280;61559;50.476;15.588;2023-05-08T05:03:14;98479.66;;;7.08;64.50
73106;BME280;61559;50.476;15.588;2023-05-08T05:05:45;98488.88;;;7.35;64.05
73106;BME280;61559;50.476;15.588;2023-05-08T05:08:16;98487.42;;;7.21;64.03
73106;BME280;61559;50.476;15.588;2023-05-08T05:10:47;98492.95;;;6.90;64.79
73106;BME280;61559;50.476;15.588;2023-05-08T05:13:19;98493.95;;;6.65;65.25
73106;BME280;61559;50.476;15.588;2023-05-08T05:15:50;98489.22;;;6.41;66.13
73106;BME280;61559;50.476;15.588;2023-05-08T05:18:23;98492.27;;;6.27;66.74
73106;BME280;61559;50.476;15.588;2023-05-08T05:20:56;98489.22;;;6.10;67.19
73106;BME280;61559;50.476;15.588;2023-05-08T05:23:27;98493.58;;;5.92;67.66
73106;BME280;61559;50.476;15.588;2023-05-08T05:25:56;98495.03;;;5.75;68.32
73106;BME280;61559;50.476;15.588;2023-05-08T05:28:27;98498.46;;;5.64;68.74
73106;BME280;61559;50.476;15.588;2023-05-08T05:30:57;98497.98;;;5.60;69.31
73106;BME280;61559;50.476;15.588;2023-05-08T05:33:28;98501.39;;;5.58;69.49
73106;BME280;61559;50.476;15.588;2023-05-08T05:35:59;98501.29;;;5.56;69.44
73106;BME280;61559;50.476;15.588;2023-05-08T05:38:28;98500.27;;;5.58;69.44
73106;BME280;61559;50.476;15.588;2023-05-08T05:40:59;98500.89;;;5.59;69.53
73106;BME280;61559;50.476;15.588;2023-05-08T05:43:31;98503.85;;;5.60;69.47
73106;BME280;61559;50.476;15.588;2023-05-08T05:46:06;98504.95;;;5.62;69.40
73106;BME280;61559;50.476;15.588;2023-05-08T05:48:38;98511.95;;;5.65;69.32
73106;BME280;61559;50.476;15.588;2023-05-08T05:51:09;98512.80;;;5.70;69.29
73106;BME280;61559;50.476;15.588;2023-05-08T05:53:41;98519.62;;;5.77;69.06
73106;BME280;61559;50.476;15.588;2023-05-08T05:56:12;98519.23;;;5.83;69.12
73106;BME280;61559;50.476;15.588;2023-05-08T05:58:43;98515.66;;;5.90;68.86
73106;BME280;61559;50.476;15.588;2023-05-08T06:01:14;98516.21;;;6.00;68.92
73106;BME280;61559;50.476;15.588;2023-05-08T06:03:44;98518.46;;;6.10;68.47
73106;BME280;61559;50.476;15.588;2023-05-08T06:06:15;98521.19;;;6.15;67.86
73106;BME280;61559;50.476;15.588;2023-05-08T06:08:46;98511.38;;;6.14;67.51
73106;BME280;61559;50.476;15.588;2023-05-08T06:11:15;98521.58;;;6.23;67.21
73106;BME280;61559;50.476;15.588;2023-05-08T06:13:46;98530.08;;;6.27;67.19
73106;BME280;61559;50.476;15.588;2023-05-08T06:16:19;98532.35;;;6.34;66.78
73106;BME280;61559;50.476;15.588;2023-05-08T06:18:52;98528.62;;;6.41;66.42
73106;BME280;61559;50.476;15.588;2023-05-08T06:21:23;98528.53;;;6.47;65.89
73106;BME280;61559;50.476;15.588;2023-05-08T06:23:54;98534.48;;;6.54;65.96
73106;BME280;61559;50.476;15.588;2023-05-08T06:26:25;98532.91;;;6.62;64.69
73106;BME280;61559;50.476;15.588;2023-05-08T06:28:54;98535.27;;;6.68;64.25
73106;BME280;61559;50.476;15.588;2023-05-08T06:31:26;98538.49;;;6.73;64.65
73106;BME280;61559;50.476;15.588;2023-05-08T06:33:58;98538.86;;;6.78;63.99
73106;BME280;61559;50.476;15.588;2023-05-08T06:36:30;98539.13;;;6.82;64.41
73106;BME280;61559;50.476;15.588;2023-05-08T06:39:01;98538.30;;;6.87;63.90
73106;BME280;61559;50.476;15.588;2023-05-08T06:41:33;98535.08;;;6.91;63.40
73106;BME280;61559;50.476;15.588;2023-05-08T06:44:05;98530.28;;;6.94;63.58
73106;BME280;61559;50.476;15.588;2023-05-08T06:46:37;98536.89;;;7.01;62.54
73106;BME280;61559;50.476;15.588;2023-05-08T06:49:08;98533.50;;;7.06;62.41
73106;BME280;61559;50.476;15.588;2023-05-08T06:51:39;98539.65;;;7.09;62.06
73106;BME280;61559;50.476;15.588;2023-05-08T06:54:10;98539.64;;;7.12;61.98
73106;BME280;61559;50.476;15.588;2023-05-08T06:56:41;98533.14;;;7.16;61.90
73106;BME280;61559;50.476;15.588;2023-05-08T06:59:12;98532.00;;;7.23;61.38
73106;BME280;61559;50.476;15.588;2023-05-08T07:01:43;98537.58;;;7.31;61.14
73106;BME280;61559;50.476;15.588;2023-05-08T07:04:14;98538.69;;;7.39;60.62
73106;BME280;61559;50.476;15.588;2023-05-08T07:06:46;98537.09;;;7.50;60.58
73106;BME280;61559;50.476;15.588;2023-05-08T07:09:17;98535.58;;;7.59;59.66
73106;BME280;61559;50.476;15.588;2023-05-08T07:11:48;98534.77;;;7.69;60.24
73106;BME280;61559;50.476;15.588;2023-05-08T07:14:20;98540.56;;;7.81;59.30
73106;BME280;61559;50.476;15.588;2023-05-08T07:16:51;98540.11;;;7.87;58.22
73106;BME280;61559;50.476;15.588;2023-05-08T07:19:22;98540.06;;;7.90;57.35
73106;BME280;61559;50.476;15.588;2023-05-08T07:21:53;98537.48;;;7.92;57.23
73106;BME280;61559;50.476;15.588;2023-05-08T07:24:25;98542.39;;;7.97;57.46
73106;BME280;61559;50.476;15.588;2023-05-08T07:26:54;98547.95;;;8.06;57.41
73106;BME280;61559;50.476;15.588;2023-05-08T07:29:26;98549.14;;;8.13;58.42
73106;BME280;61559;50.476;15.588;2023-05-08T07:31:57;98547.14;;;8.24;57.68
73106;BME280;61559;50.476;15.588;2023-05-08T07:34:28;98540.53;;;8.37;58.18
73106;BME280;61559;50.476;15.588;2023-05-08T07:36:58;98540.48;;;8.52;58.30
73106;BME280;61559;50.476;15.588;2023-05-08T07:39:28;98541.55;;;8.64;57.59
73106;BME280;61559;50.476;15.588;2023-05-08T07:41:59;98537.35;;;8.72;57.03
73106;BME280;61559;50.476;15.588;2023-05-08T07:44:33;98539.81;;;8.80;57.53
73106;BME280;61559;50.476;15.588;2023-05-08T07:47:22;98539.61;;;8.93;57.09
73106;BME280;61559;50.476;15.588;2023-05-08T07:49:53;98540.23;;;9.06;55.81
73106;BME280;61559;50.476;15.588;2023-05-08T07:52:25;98533.52;;;9.15;55.65
73106;BME280;61559;50.476;15.588;2023-05-08T07:54:56;98531.48;;;9.29;55.09
73106;BME280;61559;50.476;15.588;2023-05-08T07:57:28;98531.42;;;9.41;54.35
73106;BME280;61559;50.476;15.588;2023-05-08T08:00:08;98533.61;;;9.52;53.14
73106;BME280;61559;50.476;15.588;2023-05-08T08:02:42;98529.19;;;9.60;52.39
73106;BME280;61559;50.476;15.588;2023-05-08T08:05:14;98529.89;;;9.66;52.61
73106;BME280;61559;50.476;15.588;2023-05-08T08:07:46;98532.12;;;9.74;51.69
73106;BME280;61559;50.476;15.588;2023-05-08T08:10:16;98525.80;;;9.82;51.29
73106;BME280;61559;50.476;15.588;2023-05-08T08:12:47;98528.77;;;9.93;52.08
73106;BME280;61559;50.476;15.588;2023-05-08T08:15:19;98525.89;;;10.05;49.81
73106;BME280;61559;50.476;15.588;2023-05-08T08:17:50;98521.39;;;10.14;48.83
73106;BME280;61559;50.476;15.588;2023-05-08T08:20:21;98518.51;;;10.19;49.24
73106;BME280;61559;50.476;15.588;2023-05-08T08:22:55;98516.05;;;10.31;50.73
73106;BME280;61559;50.476;15.588;2023-05-08T08:25:28;98511.48;;;10.46;50.62
73106;BME280;61559;50.476;15.588;2023-05-08T08:27:59;98518.92;;;10.62;50.53
73106;BME280;61559;50.476;15.588;2023-05-08T08:30:30;98515.19;;;10.67;48.17
73106;BME280;61559;50.476;15.588;2023-05-08T08:33:02;98522.39;;;10.58;47.29
73106;BME280;61559;50.476;15.588;2023-05-08T08:35:35;98518.59;;;10.57;48.44
73106;BME280;61559;50.476;15.588;2023-05-08T08:38:06;98522.10;;;10.63;49.10
73106;BME280;61559;50.476;15.588;2023-05-08T08:40:40;98512.80;;;10.70;48.75
73106;BME280;61559;50.476;15.588;2023-05-08T08:43:12;98517.63;;;10.79;47.46
73106;BME280;61559;50.476;15.588;2023-05-08T08:45:43;98506.67;;;10.78;47.93
73106;BME280;61559;50.476;15.588;2023-05-08T08:48:15;98512.42;;;10.84;47.72
73106;BME280;61559;50.476;15.588;2023-05-08T08:50:47;98509.35;;;10.87;47.37
73106;BME280;61559;50.476;15.588;2023-05-08T08:53:28;98512.52;;;10.89;47.14
73106;BME280;61559;50.476;15.588;2023-05-08T08:56:03;98515.08;;;10.96;46.54
73106;BME280;61559;50.476;15.588;2023-05-08T08:58:39;98519.90;;;11.01;46.68
73106;BME280;61559;50.476;15.588;2023-05-08T09:01:17;98520.45;;;11.11;46.97
73106;BME280;61559;50.476;15.588;2023-05-08T09:03:49;98521.43;;;11.23;47.42
73106;BME280;61559;50.476;15.588;2023-05-08T09:06:21;98521.60;;;11.35;46.31
73106;BME280;61559;50.476;15.588;2023-05-08T09:08:55;98519.86;;;11.46;46.04
73106;BME280;61559;50.476;15.588;2023-05-08T09:11:27;98519.48;;;11.53;44.28
73106;BME280;61559;50.476;15.588;2023-05-08T09:13:58;98515.83;;;11.58;44.03
73106;BME280;61559;50.476;15.588;2023-05-08T09:16:30;98512.26;;;11.55;42.74
73106;BME280;61559;50.476;15.588;2023-05-08T09:19:02;98522.00;;;11.61;44.26
73106;BME280;61559;50.476;15.588;2023-05-08T09:21:34;98521.13;;;11.61;43.08
73106;BME280;61559;50.476;15.588;2023-05-08T09:24:07;98522.56;;;11.67;43.93
73106;BME280;61559;50.476;15.588;2023-05-08T09:26:39;98525.54;;;11.73;44.45
73106;BME280;61559;50.476;15.588;2023-05-08T09:29:12;98525.89;;;11.84;44.79
73106;BME280;61559;50.476;15.588;2023-05-08T09:31:46;98525.93;;;11.94;42.35
73106;BME280;61559;50.476;15.588;2023-05-08T09:34:26;98527.95;;;11.99;42.05
73106;BME280;61559;50.476;15.588;2023-05-08T09:37:11;98530.21;;;12.04;41.07
73106;BME280;61559;50.476;15.588;2023-05-08T09:39:47;98521.98;;;12.08;41.79
73106;BME280;61559;50.476;15.588;2023-05-08T09:42:18;98527.15;;;12.17;41.67
73106;BME280;61559;50.476;15.588;2023-05-08T09:44:52;98518.27;;;12.24;40.67
73106;BME280;61559;50.476;15.588;2023-05-08T09:47:24;98514.86;;;12.26;40.78
73106;BME280;61559;50.476;15.588;2023-05-08T09:49:59;98512.35;;;12.32;41.22
73106;BME280;61559;50.476;15.588;2023-05-08T09:52:31;98515.57;;;12.43;41.10
73106;BME280;61559;50.476;15.588;2023-05-08T09:55:04;98511.96;;;12.49;40.69
73106;BME280;61559;50.476;15.588;2023-05-08T09:57:38;98511.73;;;12.55;40.54
73106;BME280;61559;50.476;15.588;2023-05-08T10:00:11;98508.10;;;12.60;41.29
73106;BME280;61559;50.476;15.588;2023-05-08T10:02:54;98515.33;;;12.68;39.55
73106;BME280;61559;50.476;15.588;2023-05-08T10:05:28;98514.58;;;12.62;38.13
73106;BME280;61559;50.476;15.588;2023-05-08T10:08:18;98513.03;;;12.57;38.71
73106;BME280;61559;50.476;15.588;2023-05-08T10:10:50;98515.79;;;12.61;40.47
73106;BME280;61559;50.476;15.588;2023-05-08T10:13:22;98516.42;;;12.65;38.66
73106;BME280;61559;50.476;15.588;2023-05-08T10:15:54;98509.70;;;12.65;39.14
73106;BME280;61559;50.476;15.588;2023-05-08T10:18:29;98507.48;;;12.69;39.73
73106;BME280;61559;50.476;15.588;2023-05-08T10:21:06;98505.35;;;12.74;38.32
73106;BME280;61559;50.476;15.588;2023-05-08T10:23:40;98499.52;;;12.75;38.59
73106;BME280;61559;50.476;15.588;2023-05-08T10:26:15;98499.50;;;12.76;40.26
73106;BME280;61559;50.476;15.588;2023-05-08T10:28:54;98499.58;;;12.79;40.52
73106;BME280;61559;50.476;15.588;2023-05-08T10:31:28;98495.92;;;12.83;40.38
73106;BME280;61559;50.476;15.588;2023-05-08T10:34:01;98499.54;;;12.89;41.22
73106;BME280;61559;50.476;15.588;2023-05-08T10:36:33;98496.17;;;12.98;41.94
73106;BME280;61559;50.476;15.588;2023-05-08T10:39:05;98496.76;;;13.09;41.45
73106;BME280;61559;50.476;15.588;2023-05-08T10:41:38;98493.55;;;13.20;38.55
73106;BME280;61559;50.476;15.588;2023-05-08T10:44:09;98497.46;;;13.27;36.56
73106;BME280;61559;50.476;15.588;2023-05-08T10:46:47;98494.13;;;13.30;35.51
73106;BME280;61559;50.476;15.588;2023-05-08T10:49:28;98493.34;;;13.30;35.03
73106;BME280;61559;50.476;15.588;2023-05-08T10:52:11;98490.91;;;13.32;35.84
73106;BME280;61559;50.476;15.588;2023-05-08T10:55:21;98485.39;;;13.35;34.33
73106;BME280;61559;50.476;15.588;2023-05-08T10:58:10;98484.05;;;13.37;36.39
73106;BME280;61559;50.476;15.588;2023-05-08T11:01:16;98480.09;;;13.46;38.09
73106;BME280;61559;50.476;15.588;2023-05-08T11:03:49;98478.90;;;13.59;37.53
73106;BME280;61559;50.476;15.588;2023-05-08T11:06:44;98476.17;;;13.64;33.71
73106;BME280;61559;50.476;15.588;2023-05-08T11:09:26;98474.00;;;13.71;35.27
73106;BME280;61559;50.476;15.588;2023-05-08T11:12:22;98477.75;;;13.72;34.40
73106;BME280;61559;50.476;15.588;2023-05-08T11:14:58;98477.58;;;13.75;33.97
73106;BME280;61559;50.476;15.588;2023-05-08T11:17:31;98477.52;;;13.77;35.32
73106;BME280;61559;50.476;15.588;2023-05-08T11:20:05;98473.89;;;13.88;35.92
73106;BME280;61559;50.476;15.588;2023-05-08T11:22:36;98475.29;;;14.00;35.80
73106;BME280;61559;50.476;15.588;2023-05-08T11:25:10;98474.67;;;14.06;34.02
73106;BME280;61559;50.476;15.588;2023-05-08T11:30:44;98472.54;;;14.11;38.76
73106;BME280;61559;50.476;15.588;2023-05-08T11:33:18;98471.60;;;14.17;37.28
73106;BME280;61559;50.476;15.588;2023-05-08T11:35:52;98471.02;;;14.09;36.65
73106;BME280;61559;50.476;15.588;2023-05-08T11:38:29;98471.57;;;13.97;37.29
73106;BME280;61559;50.476;15.588;2023-05-08T11:41:02;98470.10;;;13.93;38.12
73106;BME280;61559;50.476;15.588;2023-05-08T11:43:45;98467.52;;;13.94;38.64
73106;BME280;61559;50.476;15.588;2023-05-08T11:46:20;98468.91;;;13.99;38.54
73106;BME280;61559;50.476;15.588;2023-05-08T11:48:58;98464.62;;;14.04;36.32
73106;BME280;61559;50.476;15.588;2023-05-08T11:51:39;98459.66;;;14.01;36.05
73106;BME280;61559;50.476;15.588;2023-05-08T11:54:28;98461.42;;;14.01;36.87
73106;BME280;61559;50.476;15.588;2023-05-08T11:57:04;98464.67;;;13.94;36.71
73106;BME280;61559;50.476;15.588;2023-05-08T11:59:41;98459.55;;;13.90;37.15
73106;BME280;61559;50.476;15.588;2023-05-08T12:02:12;98453.83;;;13.89;36.75
73106;BME280;61559;50.476;15.588;2023-05-08T12:04:47;98460.08;;;13.95;37.23
73106;BME280;61559;50.476;15.588;2023-05-08T12:07:18;98458.07;;;14.04;35.72
73106;BME280;61559;50.476;15.588;2023-05-08T12:09:50;98462.15;;;14.09;35.34
73106;BME280;61559;50.476;15.588;2023-05-08T12:12:21;98463.46;;;14.08;34.27
73106;BME280;61559;50.476;15.588;2023-05-08T12:14:52;98460.81;;;14.07;34.73
73106;BME280;61559;50.476;15.588;2023-05-08T12:17:24;98463.04;;;14.07;35.74
73106;BME280;61559;50.476;15.588;2023-05-08T12:19:56;98460.14;;;14.10;36.13
73106;BME280;61559;50.476;15.588;2023-05-08T12:22:32;98461.02;;;14.14;35.75
73106;BME280;61559;50.476;15.588;2023-05-08T12:25:05;98458.08;;;14.14;35.43
73106;BME280;61559;50.476;15.588;2023-05-08T12:27:37;98456.54;;;14.11;35.64
73106;BME280;61559;50.476;15.588;2023-05-08T12:30:10;98462.21;;;14.10;35.80
73106;BME280;61559;50.476;15.588;2023-05-08T12:32:43;98458.56;;;14.11;36.50
73106;BME280;61559;50.476;15.588;2023-05-08T12:35:15;98463.38;;;14.17;36.47
73106;BME280;61559;50.476;15.588;2023-05-08T12:37:46;98463.91;;;14.31;38.06
73106;BME280;61559;50.476;15.588;2023-05-08T12:40:28;98463.69;;;14.43;37.49
73106;BME280;61559;50.476;15.588;2023-05-08T12:43:02;98470.11;;;14.50;36.94
73106;BME280;61559;50.476;15.588;2023-05-08T12:45:35;98467.15;;;14.52;36.66
73106;BME280;61559;50.476;15.588;2023-05-08T12:48:09;98458.38;;;14.52;36.75
73106;BME280;61559;50.476;15.588;2023-05-08T12:50:43;98454.41;;;14.50;36.38
73106;BME280;61559;50.476;15.588;2023-05-08T12:53:17;98460.17;;;14.49;35.36
73106;BME280;61559;50.476;15.588;2023-05-08T12:55:53;98455.64;;;14.43;34.19
73106;BME280;61559;50.476;15.588;2023-05-08T12:58:27;98457.62;;;14.43;35.06
73106;BME280;61559;50.476;15.588;2023-05-08T13:01:06;98457.39;;;14.39;34.87
73106;BME280;61559;50.476;15.588;2023-05-08T13:03:39;98449.55;;;14.38;35.18
73106;BME280;61559;50.476;15.588;2023-05-08T13:06:22;98450.92;;;14.37;35.61
73106;BME280;61559;50.476;15.588;2023-05-08T13:08:54;98449.73;;;14.39;36.49
73106;BME280;61559;50.476;15.588;2023-05-08T13:11:32;98450.95;;;14.46;37.04
73106;BME280;61559;50.476;15.588;2023-05-08T13:14:03;98447.95;;;14.51;36.78
73106;BME280;61559;50.476;15.588;2023-05-08T13:16:43;98445.35;;;14.49;37.06
73106;BME280;61559;50.476;15.588;2023-05-08T13:19:16;98441.09;;;14.48;36.17
73106;BME280;61559;50.476;15.588;2023-05-08T13:21:47;98434.23;;;14.47;35.83
73106;BME280;61559;50.476;15.588;2023-05-08T13:24:19;98429.73;;;14.49;36.76
73106;BME280;61559;50.476;15.588;2023-05-08T13:26:50;98434.70;;;14.53;36.76
73106;BME280;61559;50.476;15.588;2023-05-08T13:29:21;98432.23;;;14.54;36.68
73106;BME280;61559;50.476;15.588;2023-05-08T13:31:52;98434.58;;;14.55;36.58
73106;BME280;61559;50.476;15.588;2023-05-08T13:34:23;98442.45;;;14.56;36.46
73106;BME280;61559;50.476;15.588;2023-05-08T13:36:55;98439.50;;;14.60;37.17